sensor_id;sensor_type;location;lat;lon;timestamp;temperature;humidity
6841;DHT22;3458;53.678;14.080;2022-08-02T00:02:16;17.60;99.90
6841;DHT22;3458;53.678;14.080;2022-08-02T00:04:42;17.50;99.90
6841;DHT22;3458;53.678;14.080;2022-08-02T00:07:07;17.40;99.90
6841;DHT22;3458;53.678;14.080;2022-08-02T00:09:33;17.40;99.90
6841;DHT22;3458;53.678;14.080;2022-08-02T00:11:58;17.40;99.90
6841;DHT22;3458;53.678;14.080;2022-08-02T00:14:24;17.30;99.90
6841;DHT22;3458;53.678;14.080;2022-08-02T00:16:50;17.20;99.90
6841;DHT22;3458;53.678;14.080;2022-08-02T00:19:15;17.20;99.90
6841;DHT22;3458;53.678;14.080;2022-08-02T00:21:41;17.30;99.90
6841;DHT22;3458;53.678;14.080;2022-08-02T00:24:07;17.20;99.90
6841;DHT22;3458;53.678;14.080;2022-08-02T00:26:32;17.10;99.90
6841;DHT22;3458;53.678;14.080;2022-08-02T00:28:58;17.10;99.90
6841;DHT22;3458;53.678;14.080;2022-08-02T00:31:23;17.10;99.90
6841;DHT22;3458;53.678;14.080;2022-08-02T00:33:49;17.00;99.90
6841;DHT22;3458;53.678;14.080;2022-08-02T00:36:15;17.00;99.90
6841;DHT22;3458;53.678;14.080;2022-08-02T00:38:40;17.00;99.90
6841;DHT22;3458;53.678;14.080;2022-08-02T00:41:11;17.00;99.90
6841;DHT22;3458;53.678;14.080;2022-08-02T00:43:37;17.00;99.90
6841;DHT22;3458;53.678;14.080;2022-08-02T00:46:03;16.90;99.90
6841;DHT22;3458;53.678;14.080;2022-08-02T00:48:29;16.80;99.90
6841;DHT22;3458;53.678;14.080;2022-08-02T00:50:54;16.80;99.90
6841;DHT22;3458;53.678;14.080;2022-08-02T00:53:21;16.80;99.90
6841;DHT22;3458;53.678;14.080;2022-08-02T00:55:46;16.80;99.90
6841;DHT22;3458;53.678;14.080;2022-08-02T00:58:12;16.80;99.90
6841;DHT22;3458;53.678;14.080;2022-08-02T01:00:38;16.80;99.90
6841;DHT22;3458;53.678;14.080;2022-08-02T01:03:03;16.80;99.90
6841;DHT22;3458;53.678;14.080;2022-08-02T01:05:29;16.70;99.90
6841;DHT22;3458;53.678;14.080;2022-08-02T01:07:54;16.70;99.90
6841;DHT22;3458;53.678;14.080;2022-08-02T01:10:20;16.70;99.90
6841;DHT22;3458;53.678;14.080;2022-08-02T01:12:45;16.70;99.90
6841;DHT22;3458;53.678;14.080;2022-08-02T01:15:13;16.70;99.90
6841;DHT22;3458;53.678;14.080;2022-08-02T01:17:51;16.50;99.90
6841;DHT22;3458;53.678;14.080;2022-08-02T01:20:58;16.40;99.90
6841;DHT22;3458;53.678;14.080;2022-08-02T01:23:53;16.40;99.90
6841;DHT22;3458;53.678;14.080;2022-08-02T01:26:36;16.40;99.90
6841;DHT22;3458;53.678;14.080;2022-08-02T01:36:40;16.50;99.90
6841;DHT22;3458;53.678;14.080;2022-08-02T01:39:10;16.40;99.90
6841;DHT22;3458;53.678;14.080;2022-08-02T01:41:37;16.30;99.90
6841;DHT22;3458;53.678;14.080;2022-08-02T01:44:04;16.30;99.90
6841;DHT22;3458;53.678;14.080;2022-08-02T01:46:32;16.30;99.90
6841;DHT22;3458;53.678;14.080;2022-08-02T01:49:02;16.30;99.90
6841;DHT22;3458;53.678;14.080;2022-08-02T01:51:31;16.30;99.90
6841;DHT22;3458;53.678;14.080;2022-08-02T01:54:17;16.30;99.90
6841;DHT22;3458;53.678;14.080;2022-08-02T01:56:44;16.30;99.90
6841;DHT22;3458;53.678;14.080;2022-08-02T01:59:13;16.20;99.90
6841;DHT22;3458;53.678;14.080;2022-08-02T02:01:41;16.10;99.90
6841;DHT22;3458;53.678;14.080;2022-08-02T02:04:07;16.10;99.90
6841;DHT22;3458;53.678;14.080;2022-08-02T02:06:35;16.20;99.90
6841;DHT22;3458;53.678;14.080;2022-08-02T02:09:01;16.20;99.90
6841;DHT22;3458;53.678;14.080;2022-08-02T02:11:27;16.20;99.90
6841;DHT22;3458;53.678;14.080;2022-08-02T02:13:54;16.20;99.90
6841;DHT22;3458;53.678;14.080;2022-08-02T02:16:23;16.20;99.90
6841;DHT22;3458;53.678;14.080;2022-08-02T02:18:49;16.20;99.90
6841;DHT22;3458;53.678;14.080;2022-08-02T02:21:15;16.00;99.90
6841;DHT22;3458;53.678;14.080;2022-08-02T02:23:41;16.00;99.90
6841;DHT22;3458;53.678;14.080;2022-08-02T02:26:10;16.00;99.90
6841;DHT22;3458;53.678;14.080;2022-08-02T02:28:38;16.00;99.90
6841;DHT22;3458;53.678;14.080;2022-08-02T02:31:06;15.80;99.90
6841;DHT22;3458;53.678;14.080;2022-08-02T02:33:40;15.80;99.90
6841;DHT22;3458;53.678;14.080;2022-08-02T02:36:07;15.90;99.90
6841;DHT22;3458;53.678;14.080;2022-08-02T02:38:33;15.90;99.90
6841;DHT22;3458;53.678;14.080;2022-08-02T02:41:02;15.80;99.90
6841;DHT22;3458;53.678;14.080;2022-08-02T02:43:29;15.70;99.90
6841;DHT22;3458;53.678;14.080;2022-08-02T02:45:56;15.70;99.90
6841;DHT22;3458;53.678;14.080;2022-08-02T02:48:24;15.70;99.90
6841;DHT22;3458;53.678;14.080;2022-08-02T02:50:51;15.70;99.90
6841;DHT22;3458;53.678;14.080;2022-08-02T02:53:18;15.70;99.90
6841;DHT22;3458;53.678;14.080;2022-08-02T02:55:45;15.70;99.90
6841;DHT22;3458;53.678;14.080;2022-08-02T02:58:11;15.50;99.90
6841;DHT22;3458;53.678;14.080;2022-08-02T03:00:37;15.50;99.90
6841;DHT22;3458;53.678;14.080;2022-08-02T03:03:23;15.50;99.90
6841;DHT22;3458;53.678;14.080;2022-08-02T03:05:48;15.60;99.90
6841;DHT22;3458;53.678;14.080;2022-08-02T03:08:14;15.70;99.90
6841;DHT22;3458;53.678;14.080;2022-08-02T03:10:42;15.60;99.90
6841;DHT22;3458;53.678;14.080;2022-08-02T03:13:08;15.40;99.90
6841;DHT22;3458;53.678;14.080;2022-08-02T03:15:35;15.40;99.90
6841;DHT22;3458;53.678;14.080;2022-08-02T03:18:01;15.50;99.90
6841;DHT22;3458;53.678;14.080;2022-08-02T03:20:27;15.40;99.90
6841;DHT22;3458;53.678;14.080;2022-08-02T03:22:52;15.30;99.90
6841;DHT22;3458;53.678;14.080;2022-08-02T03:25:18;15.30;99.90
6841;DHT22;3458;53.678;14.080;2022-08-02T03:27:44;15.30;99.90
6841;DHT22;3458;53.678;14.080;2022-08-02T03:30:11;15.40;99.90
6841;DHT22;3458;53.678;14.080;2022-08-02T03:32:39;15.40;99.90
6841;DHT22;3458;53.678;14.080;2022-08-02T03:35:06;15.40;99.90
6841;DHT22;3458;53.678;14.080;2022-08-02T03:37:35;15.50;99.90
6841;DHT22;3458;53.678;14.080;2022-08-02T03:40:01;15.40;99.90
6841;DHT22;3458;53.678;14.080;2022-08-02T03:42:27;15.40;99.90
6841;DHT22;3458;53.678;14.080;2022-08-02T03:44:55;15.30;99.90
6841;DHT22;3458;53.678;14.080;2022-08-02T03:47:22;15.30;99.90
6841;DHT22;3458;53.678;14.080;2022-08-02T03:49:49;15.30;99.90
6841;DHT22;3458;53.678;14.080;2022-08-02T03:52:16;15.40;99.90
6841;DHT22;3458;53.678;14.080;2022-08-02T03:54:41;15.40;99.90
6841;DHT22;3458;53.678;14.080;2022-08-02T03:57:07;15.30;99.90
6841;DHT22;3458;53.678;14.080;2022-08-02T03:59:41;15.30;99.90
6841;DHT22;3458;53.678;14.080;2022-08-02T04:02:07;15.40;99.90
6841;DHT22;3458;53.678;14.080;2022-08-02T04:04:33;15.20;99.90
6841;DHT22;3458;53.678;14.080;2022-08-02T04:06:58;15.10;99.90
6841;DHT22;3458;53.678;14.080;2022-08-02T04:09:24;15.10;99.90
6841;DHT22;3458;53.678;14.080;2022-08-02T04:11:49;15.10;99.90
6841;DHT22;3458;53.678;14.080;2022-08-02T04:14:15;15.10;99.90
6841;DHT22;3458;53.678;14.080;2022-08-02T04:16:44;15.20;99.90
6841;DHT22;3458;53.678;14.080;2022-08-02T04:19:18;15.20;99.90
6841;DHT22;3458;53.678;14.080;2022-08-02T04:21:45;15.30;99.90
6841;DHT22;3458;53.678;14.080;2022-08-02T04:24:13;15.30;99.90
6841;DHT22;3458;53.678;14.080;2022-08-02T04:26:42;15.20;99.90
6841;DHT22;3458;53.678;14.080;2022-08-02T04:29:10;15.30;99.90
6841;DHT22;3458;53.678;14.080;2022-08-02T04:31:36;15.20;99.90
6841;DHT22;3458;53.678;14.080;2022-08-02T04:34:02;15.30;99.90
6841;DHT22;3458;53.678;14.080;2022-08-02T04:36:28;15.20;99.90
6841;DHT22;3458;53.678;14.080;2022-08-02T04:38:53;15.30;99.90
6841;DHT22;3458;53.678;14.080;2022-08-02T04:41:19;15.30;99.90
6841;DHT22;3458;53.678;14.080;2022-08-02T04:43:44;15.30;99.90
6841;DHT22;3458;53.678;14.080;2022-08-02T04:46:10;15.30;99.90
6841;DHT22;3458;53.678;14.080;2022-08-02T04:48:35;15.30;99.90
6841;DHT22;3458;53.678;14.080;2022-08-02T04:51:01;15.30;99.90
6841;DHT22;3458;53.678;14.080;2022-08-02T04:53:26;15.40;99.90
6841;DHT22;3458;53.678;14.080;2022-08-02T04:55:52;15.40;99.90
6841;DHT22;3458;53.678;14.080;2022-08-02T04:58:17;15.40;99.90
6841;DHT22;3458;53.678;14.080;2022-08-02T05:00:43;15.50;99.90
6841;DHT22;3458;53.678;14.080;2022-08-02T05:03:08;15.60;99.90
6841;DHT22;3458;53.678;14.080;2022-08-02T05:05:34;15.60;99.90
6841;DHT22;3458;53.678;14.080;2022-08-02T05:08:00;15.60;99.90
6841;DHT22;3458;53.678;14.080;2022-08-02T05:10:25;15.70;99.90
6841;DHT22;3458;53.678;14.080;2022-08-02T05:12:51;15.70;99.90
6841;DHT22;3458;53.678;14.080;2022-08-02T05:15:17;15.70;99.90
6841;DHT22;3458;53.678;14.080;2022-08-02T05:17:47;15.80;99.90
6841;DHT22;3458;53.678;14.080;2022-08-02T05:20:12;15.80;99.90
6841;DHT22;3458;53.678;14.080;2022-08-02T05:22:39;15.70;99.90
6841;DHT22;3458;53.678;14.080;2022-08-02T05:25:05;15.60;99.90
6841;DHT22;3458;53.678;14.080;2022-08-02T05:27:30;15.70;99.90
6841;DHT22;3458;53.678;14.080;2022-08-02T05:29:57;15.80;99.90
6841;DHT22;3458;53.678;14.080;2022-08-02T05:32:23;15.80;99.90
6841;DHT22;3458;53.678;14.080;2022-08-02T05:34:48;15.90;99.90
6841;DHT22;3458;53.678;14.080;2022-08-02T05:37:14;16.00;99.90
6841;DHT22;3458;53.678;14.080;2022-08-02T05:39:39;16.00;99.90
6841;DHT22;3458;53.678;14.080;2022-08-02T05:42:05;15.80;99.90
6841;DHT22;3458;53.678;14.080;2022-08-02T05:44:30;15.90;99.90
6841;DHT22;3458;53.678;14.080;2022-08-02T05:46:56;16.10;99.90
6841;DHT22;3458;53.678;14.080;2022-08-02T05:49:21;16.10;99.90
6841;DHT22;3458;53.678;14.080;2022-08-02T05:52:08;16.10;99.90
6841;DHT22;3458;53.678;14.080;2022-08-02T05:57:22;16.00;99.90
6841;DHT22;3458;53.678;14.080;2022-08-02T06:00:05;16.10;99.90
6841;DHT22;3458;53.678;14.080;2022-08-02T06:02:59;16.10;99.90
6841;DHT22;3458;53.678;14.080;2022-08-02T06:05:32;16.20;99.90
6841;DHT22;3458;53.678;14.080;2022-08-02T06:07:57;16.40;99.90
6841;DHT22;3458;53.678;14.080;2022-08-02T06:10:28;16.40;99.90
6841;DHT22;3458;53.678;14.080;2022-08-02T06:15:32;16.40;99.90
6841;DHT22;3458;53.678;14.080;2022-08-02T06:17:58;16.40;99.90
6841;DHT22;3458;53.678;14.080;2022-08-02T06:20:26;16.40;99.90
6841;DHT22;3458;53.678;14.080;2022-08-02T06:22:54;16.60;99.90
6841;DHT22;3458;53.678;14.080;2022-08-02T06:25:20;16.70;99.90
6841;DHT22;3458;53.678;14.080;2022-08-02T06:27:48;16.80;99.90
6841;DHT22;3458;53.678;14.080;2022-08-02T06:30:14;16.90;99.90
6841;DHT22;3458;53.678;14.080;2022-08-02T06:32:40;16.80;99.90
6841;DHT22;3458;53.678;14.080;2022-08-02T06:35:06;16.90;99.90
6841;DHT22;3458;53.678;14.080;2022-08-02T06:37:40;17.00;99.90
6841;DHT22;3458;53.678;14.080;2022-08-02T06:40:29;17.00;99.90
6841;DHT22;3458;53.678;14.080;2022-08-02T06:45:33;17.30;99.90
6841;DHT22;3458;53.678;14.080;2022-08-02T06:47:59;17.30;99.90
6841;DHT22;3458;53.678;14.080;2022-08-02T06:50:25;17.40;99.90
6841;DHT22;3458;53.678;14.080;2022-08-02T06:52:51;17.40;99.90
6841;DHT22;3458;53.678;14.080;2022-08-02T06:55:16;17.50;99.90
6841;DHT22;3458;53.678;14.080;2022-08-02T06:57:42;17.60;99.90
6841;DHT22;3458;53.678;14.080;2022-08-02T07:00:08;17.70;99.90
6841;DHT22;3458;53.678;14.080;2022-08-02T07:02:37;17.70;99.90
6841;DHT22;3458;53.678;14.080;2022-08-02T07:05:05;17.70;99.90
6841;DHT22;3458;53.678;14.080;2022-08-02T07:07:31;17.80;99.90
6841;DHT22;3458;53.678;14.080;2022-08-02T07:09:58;17.80;99.90
6841;DHT22;3458;53.678;14.080;2022-08-02T07:12:24;17.90;99.90
6841;DHT22;3458;53.678;14.080;2022-08-02T07:14:49;18.00;99.90
6841;DHT22;3458;53.678;14.080;2022-08-02T07:17:14;18.00;99.90
6841;DHT22;3458;53.678;14.080;2022-08-02T07:19:40;18.00;99.90
6841;DHT22;3458;53.678;14.080;2022-08-02T07:22:06;18.10;99.90
6841;DHT22;3458;53.678;14.080;2022-08-02T07:24:31;18.20;99.90
6841;DHT22;3458;53.678;14.080;2022-08-02T07:26:57;18.20;99.90
6841;DHT22;3458;53.678;14.080;2022-08-02T07:29:23;18.30;99.90
6841;DHT22;3458;53.678;14.080;2022-08-02T07:31:49;18.30;99.90
6841;DHT22;3458;53.678;14.080;2022-08-02T07:34:14;18.30;99.90
6841;DHT22;3458;53.678;14.080;2022-08-02T07:36:40;18.30;99.90
6841;DHT22;3458;53.678;14.080;2022-08-02T07:39:05;18.30;99.90
6841;DHT22;3458;53.678;14.080;2022-08-02T07:41:31;18.30;99.90
6841;DHT22;3458;53.678;14.080;2022-08-02T07:43:56;18.30;99.90
6841;DHT22;3458;53.678;14.080;2022-08-02T07:46:22;18.40;99.90
6841;DHT22;3458;53.678;14.080;2022-08-02T07:48:47;18.40;99.90
6841;DHT22;3458;53.678;14.080;2022-08-02T07:51:14;18.50;99.90
6841;DHT22;3458;53.678;14.080;2022-08-02T07:53:39;18.50;99.90
6841;DHT22;3458;53.678;14.080;2022-08-02T07:56:05;18.60;99.90
6841;DHT22;3458;53.678;14.080;2022-08-02T07:58:30;18.60;99.90
6841;DHT22;3458;53.678;14.080;2022-08-02T08:00:56;18.70;99.90
6841;DHT22;3458;53.678;14.080;2022-08-02T08:03:21;18.80;99.90
6841;DHT22;3458;53.678;14.080;2022-08-02T08:05:47;18.80;99.90
6841;DHT22;3458;53.678;14.080;2022-08-02T08:08:12;18.90;99.90
6841;DHT22;3458;53.678;14.080;2022-08-02T08:10:39;18.80;99.90
6841;DHT22;3458;53.678;14.080;2022-08-02T08:13:05;18.90;99.90
6841;DHT22;3458;53.678;14.080;2022-08-02T08:15:30;18.80;99.90
6841;DHT22;3458;53.678;14.080;2022-08-02T08:17:56;18.90;99.90
6841;DHT22;3458;53.678;14.080;2022-08-02T08:20:22;19.00;99.90
6841;DHT22;3458;53.678;14.080;2022-08-02T08:22:47;19.10;99.90
6841;DHT22;3458;53.678;14.080;2022-08-02T08:25:13;19.20;99.90
6841;DHT22;3458;53.678;14.080;2022-08-02T08:27:49;19.30;99.90
6841;DHT22;3458;53.678;14.080;2022-08-02T08:30:17;19.40;99.90
6841;DHT22;3458;53.678;14.080;2022-08-02T08:32:42;19.60;99.90
6841;DHT22;3458;53.678;14.080;2022-08-02T08:35:08;19.70;99.90
6841;DHT22;3458;53.678;14.080;2022-08-02T08:37:35;19.80;99.90
6841;DHT22;3458;53.678;14.080;2022-08-02T08:40:00;19.90;99.90
6841;DHT22;3458;53.678;14.080;2022-08-02T08:42:26;20.00;99.90
6841;DHT22;3458;53.678;14.080;2022-08-02T08:44:53;20.00;99.50
6841;DHT22;3458;53.678;14.080;2022-08-02T08:47:19;20.10;99.60
6841;DHT22;3458;53.678;14.080;2022-08-02T08:49:49;20.20;97.90
6841;DHT22;3458;53.678;14.080;2022-08-02T08:52:17;20.20;98.60
6841;DHT22;3458;53.678;14.080;2022-08-02T08:54:46;20.20;98.40
6841;DHT22;3458;53.678;14.080;2022-08-02T08:57:12;20.00;97.20
6841;DHT22;3458;53.678;14.080;2022-08-02T08:59:39;19.90;97.10
6841;DHT22;3458;53.678;14.080;2022-08-02T09:02:05;19.90;97.20
6841;DHT22;3458;53.678;14.080;2022-08-02T09:04:30;19.90;97.30
6841;DHT22;3458;53.678;14.080;2022-08-02T09:06:56;20.00;96.90
6841;DHT22;3458;53.678;14.080;2022-08-02T09:09:22;20.10;96.90
6841;DHT22;3458;53.678;14.080;2022-08-02T09:11:48;20.20;96.10
6841;DHT22;3458;53.678;14.080;2022-08-02T09:14:25;20.30;95.70
6841;DHT22;3458;53.678;14.080;2022-08-02T09:16:51;20.40;95.20
6841;DHT22;3458;53.678;14.080;2022-08-02T09:19:21;20.50;94.90
6841;DHT22;3458;53.678;14.080;2022-08-02T09:22:07;20.60;94.30
6841;DHT22;3458;53.678;14.080;2022-08-02T09:24:47;20.80;93.80
6841;DHT22;3458;53.678;14.080;2022-08-02T09:27:15;20.90;94.40
6841;DHT22;3458;53.678;14.080;2022-08-02T09:29:51;21.00;93.40
6841;DHT22;3458;53.678;14.080;2022-08-02T09:32:17;21.10;93.10
6841;DHT22;3458;53.678;14.080;2022-08-02T09:34:45;21.20;93.00
6841;DHT22;3458;53.678;14.080;2022-08-02T09:37:28;21.30;92.70
6841;DHT22;3458;53.678;14.080;2022-08-02T09:39:54;21.30;91.70
6841;DHT22;3458;53.678;14.080;2022-08-02T09:42:20;21.30;91.00
6841;DHT22;3458;53.678;14.080;2022-08-02T09:44:55;21.30;88.80
6841;DHT22;3458;53.678;14.080;2022-08-02T09:47:23;21.40;87.70
6841;DHT22;3458;53.678;14.080;2022-08-02T09:49:49;21.40;87.60
6841;DHT22;3458;53.678;14.080;2022-08-02T09:52:15;21.50;87.00
6841;DHT22;3458;53.678;14.080;2022-08-02T09:54:46;21.60;84.60
6841;DHT22;3458;53.678;14.080;2022-08-02T09:57:21;21.60;82.40
6841;DHT22;3458;53.678;14.080;2022-08-02T09:59:54;21.60;82.80
6841;DHT22;3458;53.678;14.080;2022-08-02T10:02:20;21.70;83.60
6841;DHT22;3458;53.678;14.080;2022-08-02T10:04:46;21.70;82.90
6841;DHT22;3458;53.678;14.080;2022-08-02T10:07:12;21.80;83.80
6841;DHT22;3458;53.678;14.080;2022-08-02T10:09:38;21.90;81.40
6841;DHT22;3458;53.678;14.080;2022-08-02T10:12:04;22.00;81.40
6841;DHT22;3458;53.678;14.080;2022-08-02T10:14:32;22.20;80.00
6841;DHT22;3458;53.678;14.080;2022-08-02T10:16:59;22.20;81.30
6841;DHT22;3458;53.678;14.080;2022-08-02T10:19:25;22.30;80.90
6841;DHT22;3458;53.678;14.080;2022-08-02T10:22:02;22.40;78.40
6841;DHT22;3458;53.678;14.080;2022-08-02T10:24:30;22.50;76.30
6841;DHT22;3458;53.678;14.080;2022-08-02T10:26:58;22.50;77.40
6841;DHT22;3458;53.678;14.080;2022-08-02T10:29:29;22.50;76.40
6841;DHT22;3458;53.678;14.080;2022-08-02T10:32:00;22.70;76.40
6841;DHT22;3458;53.678;14.080;2022-08-02T10:34:32;22.70;76.40
6841;DHT22;3458;53.678;14.080;2022-08-02T10:37:04;22.80;74.50
6841;DHT22;3458;53.678;14.080;2022-08-02T10:39:41;22.90;72.80
6841;DHT22;3458;53.678;14.080;2022-08-02T10:42:06;23.10;70.30
6841;DHT22;3458;53.678;14.080;2022-08-02T10:44:33;23.00;69.00
6841;DHT22;3458;53.678;14.080;2022-08-02T10:47:17;23.10;67.90
6841;DHT22;3458;53.678;14.080;2022-08-02T10:49:54;23.10;70.20
6841;DHT22;3458;53.678;14.080;2022-08-02T10:52:22;23.20;71.20
6841;DHT22;3458;53.678;14.080;2022-08-02T10:54:53;23.30;69.20
6841;DHT22;3458;53.678;14.080;2022-08-02T10:57:30;23.40;66.70
6841;DHT22;3458;53.678;14.080;2022-08-02T11:02:45;23.60;65.00
6841;DHT22;3458;53.678;14.080;2022-08-02T11:07:51;23.70;65.50
6841;DHT22;3458;53.678;14.080;2022-08-02T11:15:23;23.80;67.70
6841;DHT22;3458;53.678;14.080;2022-08-02T11:17:53;23.90;68.80
6841;DHT22;3458;53.678;14.080;2022-08-02T11:20:20;24.00;69.10
6841;DHT22;3458;53.678;14.080;2022-08-02T11:22:47;24.30;67.90
6841;DHT22;3458;53.678;14.080;2022-08-02T11:27:52;24.70;63.90
6841;DHT22;3458;53.678;14.080;2022-08-02T11:30:19;24.90;59.50
6841;DHT22;3458;53.678;14.080;2022-08-02T11:32:44;25.10;60.40
6841;DHT22;3458;53.678;14.080;2022-08-02T11:35:10;25.20;59.00
6841;DHT22;3458;53.678;14.080;2022-08-02T11:37:45;25.40;57.20
6841;DHT22;3458;53.678;14.080;2022-08-02T11:40:13;25.40;57.10
6841;DHT22;3458;53.678;14.080;2022-08-02T11:42:42;25.50;57.70
6841;DHT22;3458;53.678;14.080;2022-08-02T11:45:15;25.70;54.70
6841;DHT22;3458;53.678;14.080;2022-08-02T11:47:52;25.80;54.90
6841;DHT22;3458;53.678;14.080;2022-08-02T11:50:19;26.00;50.50
6841;DHT22;3458;53.678;14.080;2022-08-02T11:52:47;26.10;48.50
6841;DHT22;3458;53.678;14.080;2022-08-02T11:55:13;26.10;47.70
6841;DHT22;3458;53.678;14.080;2022-08-02T11:57:39;26.10;46.40
6841;DHT22;3458;53.678;14.080;2022-08-02T12:00:17;26.30;46.80
6841;DHT22;3458;53.678;14.080;2022-08-02T12:02:47;26.50;47.40
6841;DHT22;3458;53.678;14.080;2022-08-02T12:05:17;26.70;48.50
6841;DHT22;3458;53.678;14.080;2022-08-02T12:07:44;27.10;49.20
6841;DHT22;3458;53.678;14.080;2022-08-02T12:10:14;27.50;46.90
6841;DHT22;3458;53.678;14.080;2022-08-02T12:12:59;27.80;45.60
6841;DHT22;3458;53.678;14.080;2022-08-02T12:15:42;28.20;44.10
6841;DHT22;3458;53.678;14.080;2022-08-02T12:18:14;28.60;38.80
6841;DHT22;3458;53.678;14.080;2022-08-02T12:20:59;29.00;37.60
6841;DHT22;3458;53.678;14.080;2022-08-02T12:23:25;29.90;36.20
6841;DHT22;3458;53.678;14.080;2022-08-02T12:26:02;30.30;34.00
6841;DHT22;3458;53.678;14.080;2022-08-02T12:28:33;30.50;33.30
6841;DHT22;3458;53.678;14.080;2022-08-02T12:31:00;30.80;32.50
6841;DHT22;3458;53.678;14.080;2022-08-02T12:33:28;30.90;33.00
6841;DHT22;3458;53.678;14.080;2022-08-02T12:35:54;31.20;32.10
6841;DHT22;3458;53.678;14.080;2022-08-02T12:38:20;31.20;32.30
6841;DHT22;3458;53.678;14.080;2022-08-02T12:40:47;31.20;30.90
6841;DHT22;3458;53.678;14.080;2022-08-02T12:43:18;31.10;30.20
6841;DHT22;3458;53.678;14.080;2022-08-02T12:45:53;31.10;30.00
6841;DHT22;3458;53.678;14.080;2022-08-02T12:48:37;31.00;30.40
6841;DHT22;3458;53.678;14.080;2022-08-02T12:51:25;30.70;30.00
6841;DHT22;3458;53.678;14.080;2022-08-02T12:53:52;30.40;30.50
6841;DHT22;3458;53.678;14.080;2022-08-02T12:56:28;30.30;31.20
6841;DHT22;3458;53.678;14.080;2022-08-02T12:58:53;30.10;31.30
6841;DHT22;3458;53.678;14.080;2022-08-02T13:01:21;29.80;32.30
6841;DHT22;3458;53.678;14.080;2022-08-02T13:03:46;29.60;32.40
6841;DHT22;3458;53.678;14.080;2022-08-02T13:06:12;29.40;32.60
6841;DHT22;3458;53.678;14.080;2022-08-02T13:08:38;29.20;34.50
6841;DHT22;3458;53.678;14.080;2022-08-02T13:11:04;29.10;32.10
6841;DHT22;3458;53.678;14.080;2022-08-02T13:13:29;28.90;32.30
6841;DHT22;3458;53.678;14.080;2022-08-02T13:15:55;28.90;32.30
6841;DHT22;3458;53.678;14.080;2022-08-02T13:18:21;28.80;33.30
6841;DHT22;3458;53.678;14.080;2022-08-02T13:20:47;28.80;31.90
6841;DHT22;3458;53.678;14.080;2022-08-02T13:23:12;28.70;32.60
6841;DHT22;3458;53.678;14.080;2022-08-02T13:25:40;28.60;31.60
6841;DHT22;3458;53.678;14.080;2022-08-02T13:28:06;28.70;31.20
6841;DHT22;3458;53.678;14.080;2022-08-02T13:30:32;28.80;31.40
6841;DHT22;3458;53.678;14.080;2022-08-02T13:32:58;28.90;31.60
6841;DHT22;3458;53.678;14.080;2022-08-02T13:35:23;29.00;32.20
6841;DHT22;3458;53.678;14.080;2022-08-02T13:37:49;29.10;31.70
6841;DHT22;3458;53.678;14.080;2022-08-02T13:40:14;29.20;30.80
6841;DHT22;3458;53.678;14.080;2022-08-02T13:42:40;29.30;29.20
6841;DHT22;3458;53.678;14.080;2022-08-02T13:45:06;29.30;29.40
6841;DHT22;3458;53.678;14.080;2022-08-02T13:47:32;29.50;29.80
6841;DHT22;3458;53.678;14.080;2022-08-02T13:49:57;29.70;29.50
6841;DHT22;3458;53.678;14.080;2022-08-02T13:52:23;29.90;29.10
6841;DHT22;3458;53.678;14.080;2022-08-02T13:54:48;30.00;28.90
6841;DHT22;3458;53.678;14.080;2022-08-02T13:57:14;30.30;29.20
6841;DHT22;3458;53.678;14.080;2022-08-02T13:59:40;30.40;29.30
6841;DHT22;3458;53.678;14.080;2022-08-02T14:02:06;30.50;28.80
6841;DHT22;3458;53.678;14.080;2022-08-02T14:04:31;30.40;28.30
6841;DHT22;3458;53.678;14.080;2022-08-02T14:06:57;30.40;27.40
6841;DHT22;3458;53.678;14.080;2022-08-02T14:09:23;30.50;27.10
6841;DHT22;3458;53.678;14.080;2022-08-02T14:11:49;30.70;27.20
6841;DHT22;3458;53.678;14.080;2022-08-02T14:14:15;31.00;27.50
6841;DHT22;3458;53.678;14.080;2022-08-02T14:16:41;31.20;28.10
6841;DHT22;3458;53.678;14.080;2022-08-02T14:19:06;31.40;27.00
6841;DHT22;3458;53.678;14.080;2022-08-02T14:21:33;31.30;27.00
6841;DHT22;3458;53.678;14.080;2022-08-02T14:23:58;31.30;26.80
6841;DHT22;3458;53.678;14.080;2022-08-02T14:26:24;31.40;26.80
6841;DHT22;3458;53.678;14.080;2022-08-02T14:28:49;31.60;27.70
6841;DHT22;3458;53.678;14.080;2022-08-02T14:31:15;32.00;27.50
6841;DHT22;3458;53.678;14.080;2022-08-02T14:33:40;32.60;27.00
6841;DHT22;3458;53.678;14.080;2022-08-02T14:36:06;32.90;26.00
6841;DHT22;3458;53.678;14.080;2022-08-02T14:38:32;33.40;25.20
6841;DHT22;3458;53.678;14.080;2022-08-02T14:40:59;34.10;25.10
6841;DHT22;3458;53.678;14.080;2022-08-02T14:43:24;34.30;25.60
6841;DHT22;3458;53.678;14.080;2022-08-02T14:46:09;34.20;26.10
6841;DHT22;3458;53.678;14.080;2022-08-02T14:48:34;34.50;26.10
6841;DHT22;3458;53.678;14.080;2022-08-02T14:51:00;34.90;26.00
6841;DHT22;3458;53.678;14.080;2022-08-02T14:53:25;35.70;26.10
6841;DHT22;3458;53.678;14.080;2022-08-02T14:55:51;36.40;25.00
6841;DHT22;3458;53.678;14.080;2022-08-02T14:58:16;36.20;24.30
6841;DHT22;3458;53.678;14.080;2022-08-02T15:00:42;36.10;24.20
6841;DHT22;3458;53.678;14.080;2022-08-02T15:03:08;36.10;24.20
6841;DHT22;3458;53.678;14.080;2022-08-02T15:05:34;35.90;24.60
6841;DHT22;3458;53.678;14.080;2022-08-02T15:07:59;35.60;24.60
6841;DHT22;3458;53.678;14.080;2022-08-02T15:10:25;35.20;24.90
6841;DHT22;3458;53.678;14.080;2022-08-02T15:12:50;35.00;25.70
6841;DHT22;3458;53.678;14.080;2022-08-02T15:15:16;35.20;26.20
6841;DHT22;3458;53.678;14.080;2022-08-02T15:17:41;35.50;25.60
6841;DHT22;3458;53.678;14.080;2022-08-02T15:20:07;35.70;25.30
6841;DHT22;3458;53.678;14.080;2022-08-02T15:22:33;35.90;25.20
6841;DHT22;3458;53.678;14.080;2022-08-02T15:24:58;35.80;24.60
6841;DHT22;3458;53.678;14.080;2022-08-02T15:27:24;36.00;24.40
6841;DHT22;3458;53.678;14.080;2022-08-02T15:29:50;36.30;24.30
6841;DHT22;3458;53.678;14.080;2022-08-02T15:32:16;36.60;24.40
6841;DHT22;3458;53.678;14.080;2022-08-02T15:34:45;37.00;24.80
6841;DHT22;3458;53.678;14.080;2022-08-02T15:37:11;37.10;24.90
6841;DHT22;3458;53.678;14.080;2022-08-02T15:39:37;37.00;24.30
6841;DHT22;3458;53.678;14.080;2022-08-02T15:42:03;36.90;24.00
6841;DHT22;3458;53.678;14.080;2022-08-02T15:44:29;37.30;24.10
6841;DHT22;3458;53.678;14.080;2022-08-02T15:46:54;37.30;24.30
6841;DHT22;3458;53.678;14.080;2022-08-02T15:49:20;36.80;24.10
6841;DHT22;3458;53.678;14.080;2022-08-02T15:51:48;36.30;24.20
6841;DHT22;3458;53.678;14.080;2022-08-02T15:54:13;36.10;24.10
6841;DHT22;3458;53.678;14.080;2022-08-02T15:56:39;35.70;24.30
6841;DHT22;3458;53.678;14.080;2022-08-02T15:59:04;35.60;24.30
6841;DHT22;3458;53.678;14.080;2022-08-02T16:01:30;35.20;24.70
6841;DHT22;3458;53.678;14.080;2022-08-02T16:03:56;35.30;25.10
6841;DHT22;3458;53.678;14.080;2022-08-02T16:06:21;35.40;24.80
6841;DHT22;3458;53.678;14.080;2022-08-02T16:08:47;35.20;24.80
6841;DHT22;3458;53.678;14.080;2022-08-02T16:11:12;35.10;25.00
6841;DHT22;3458;53.678;14.080;2022-08-02T16:13:41;34.70;25.60
6841;DHT22;3458;53.678;14.080;2022-08-02T16:16:18;34.20;26.00
6841;DHT22;3458;53.678;14.080;2022-08-02T16:18:45;33.50;26.30